createdAt,value
2019-04-04T00:00:25.858Z,14.53
2019-04-04T00:01:25.850Z,14.58
2019-04-04T00:02:25.813Z,14.59
2019-04-04T00:03:25.808Z,14.43
2019-04-04T00:04:25.822Z,14.47
2019-04-04T00:05:26.306Z,14.48
2019-04-04T00:06:27.020Z,14.41
2019-04-04T00:07:28.709Z,14.47
2019-04-04T00:08:25.747Z,14.44
2019-04-04T00:09:25.734Z,14.45
2019-04-04T00:10:25.750Z,14.45
2019-04-04T00:11:25.709Z,14.44
2019-04-04T00:12:25.732Z,14.48
2019-04-04T00:13:25.689Z,14.44
2019-04-04T00:14:25.677Z,14.44
2019-04-04T00:15:25.689Z,14.44
2019-04-04T00:16:25.655Z,14.45
2019-04-04T00:17:25.670Z,14.41
2019-04-04T00:18:27.375Z,14.43
2019-04-04T00:19:25.624Z,14.47
2019-04-04T00:20:25.612Z,14.33
2019-04-04T00:21:25.603Z,14.33
2019-04-04T00:22:25.611Z,14.33
2019-04-04T00:23:25.589Z,14.30
2019-04-04T00:24:25.567Z,14.30
2019-04-04T00:25:25.558Z,14.30
2019-04-04T00:26:25.551Z,14.35
2019-04-04T00:27:25.559Z,14.33
2019-04-04T00:28:25.519Z,14.32
2019-04-04T00:29:25.509Z,14.36
2019-04-04T00:30:25.503Z,14.33
2019-04-04T00:31:25.503Z,14.35
2019-04-04T00:32:25.510Z,14.28
2019-04-04T00:33:25.744Z,14.30
2019-04-04T00:34:27.763Z,14.28
2019-04-04T00:35:25.443Z,14.33
2019-04-04T00:36:25.438Z,14.29
2019-04-04T00:37:25.435Z,14.20
2019-04-04T00:38:25.447Z,14.22
2019-04-04T00:39:25.449Z,14.25
2019-04-04T00:40:25.392Z,14.28
2019-04-04T00:41:25.378Z,14.26
2019-04-04T00:42:25.368Z,14.20
2019-04-04T00:43:25.358Z,14.18
2019-04-04T00:44:25.371Z,14.17
2019-04-04T00:45:28.615Z,14.17
2019-04-04T00:46:25.323Z,14.12
2019-04-04T00:47:25.378Z,14.15
2019-04-04T00:48:25.310Z,14.17
2019-04-04T00:49:25.318Z,14.11
2019-04-04T00:50:25.287Z,14.11
2019-04-04T00:51:25.289Z,14.12
2019-04-04T00:52:25.261Z,14.14
2019-04-04T00:53:25.250Z,14.15
2019-04-04T00:54:25.280Z,14.15
2019-04-04T00:55:25.247Z,14.08
2019-04-04T00:56:25.223Z,14.17
2019-04-04T00:57:25.226Z,14.15
2019-04-04T00:58:25.200Z,14.17
2019-04-04T00:59:25.186Z,14.14
2019-04-04T01:00:25.576Z,14.11
2019-04-04T01:01:26.883Z,14.12
2019-04-04T01:02:27.236Z,14.15
2019-04-04T01:03:25.145Z,14.11
2019-04-04T01:04:25.130Z,14.12
2019-04-04T01:05:25.151Z,14.14
2019-04-04T01:06:25.107Z,14.18
2019-04-04T01:07:25.099Z,14.15
2019-04-04T01:08:25.097Z,14.12
2019-04-04T01:09:25.084Z,14.17
2019-04-04T01:10:25.095Z,14.17
2019-04-04T01:11:25.060Z,14.20
2019-04-04T01:12:25.045Z,14.20
2019-04-04T01:13:27.586Z,14.23
2019-04-04T01:14:25.046Z,14.15
2019-04-04T01:15:25.013Z,14.18
2019-04-04T01:16:25.033Z,14.15
2019-04-04T01:17:25.009Z,14.22
2019-04-04T01:18:24.989Z,14.15
2019-04-04T01:19:24.992Z,14.15
2019-04-04T01:20:24.995Z,14.20
2019-04-04T01:21:24.992Z,14.18
2019-04-04T01:22:25.602Z,14.11
2019-04-04T01:23:25.176Z,14.10
2019-04-04T01:24:24.923Z,14.07
2019-04-04T01:25:24.911Z,14.00
2019-04-04T01:26:24.923Z,14.00
2019-04-04T01:27:34.988Z,14.07
2019-04-04T01:28:24.878Z,14.04
2019-04-04T01:29:24.874Z,14.08
2019-04-04T01:30:24.850Z,14.07
2019-04-04T01:31:24.860Z,14.04
2019-04-04T01:32:24.845Z,14.03
2019-04-04T01:33:24.817Z,14.05
2019-04-04T01:34:24.804Z,14.03
2019-04-04T01:35:24.795Z,13.99
2019-04-04T01:36:25.192Z,13.93
2019-04-04T01:37:25.202Z,13.93
2019-04-04T01:38:24.765Z,13.89
2019-04-04T01:39:24.755Z,13.72
2019-04-04T01:40:24.743Z,13.70
2019-04-04T01:41:24.761Z,13.67
2019-04-04T01:42:24.728Z,13.81
2019-04-04T01:43:24.713Z,13.67
2019-04-04T01:44:24.705Z,13.81
2019-04-04T01:45:24.693Z,13.75
2019-04-04T01:46:24.705Z,13.81
2019-04-04T01:47:24.667Z,13.77
2019-04-04T01:48:24.655Z,13.67
2019-04-04T01:49:24.646Z,13.68
2019-04-04T01:50:24.631Z,13.70
2019-04-04T01:51:25.431Z,13.67
2019-04-04T01:52:27.833Z,13.68
2019-04-04T01:53:24.597Z,13.63
2019-04-04T01:54:24.594Z,13.57
2019-04-04T01:55:24.587Z,13.70
2019-04-04T01:56:24.573Z,13.59
2019-04-04T01:57:24.594Z,13.70
2019-04-04T01:58:24.548Z,13.75
2019-04-04T01:59:24.534Z,13.71
2019-04-04T02:00:24.520Z,13.70
2019-04-04T02:01:24.511Z,13.70
2019-04-04T02:02:24.504Z,13.70
2019-04-04T02:03:24.515Z,13.72
2019-04-04T02:04:24.886Z,13.81
2019-04-04T02:05:26.711Z,13.77
2019-04-04T02:06:24.468Z,13.78
2019-04-04T02:07:24.468Z,13.65
2019-04-04T02:08:24.476Z,13.75
2019-04-04T02:09:24.445Z,13.71
2019-04-04T02:10:24.411Z,13.68
2019-04-04T02:11:24.399Z,13.60
2019-04-04T02:12:33.109Z,13.56
2019-04-04T02:13:24.387Z,13.47
2019-04-04T02:14:24.398Z,13.47
2019-04-04T02:15:24.377Z,13.39
2019-04-04T02:16:24.345Z,13.38
2019-04-04T02:17:24.335Z,13.42
2019-04-04T02:18:24.350Z,13.30
2019-04-04T02:19:24.930Z,13.28
2019-04-04T02:20:25.025Z,13.16
2019-04-04T02:21:24.293Z,13.15
2019-04-04T02:22:24.339Z,13.12
2019-04-04T02:23:24.271Z,13.12
2019-04-04T02:24:24.295Z,13.19
2019-04-04T02:25:24.256Z,13.20
2019-04-04T02:26:24.244Z,13.25
2019-04-04T02:27:24.233Z,13.25
2019-04-04T02:28:24.213Z,13.33
2019-04-04T02:29:24.201Z,13.28
2019-04-04T02:30:24.213Z,13.30
2019-04-04T02:31:24.181Z,13.35
2019-04-04T02:32:26.859Z,13.33
2019-04-04T02:33:24.168Z,13.37
2019-04-04T02:34:24.148Z,13.41
2019-04-04T02:35:24.155Z,13.31
2019-04-04T02:36:24.142Z,13.30
2019-04-04T02:37:24.125Z,13.33
2019-04-04T02:38:27.059Z,13.31
2019-04-04T02:39:24.129Z,13.31
2019-04-04T02:40:24.082Z,13.30
2019-04-04T02:41:24.091Z,13.37
2019-04-04T02:42:24.061Z,13.41
2019-04-04T02:43:27.349Z,13.44
2019-04-04T02:44:24.044Z,13.42
2019-04-04T02:45:24.053Z,13.44
2019-04-04T02:46:24.049Z,13.41
2019-04-04T02:47:24.013Z,13.44
2019-04-04T02:48:24.800Z,13.44
2019-04-04T02:49:27.923Z,13.31
2019-04-04T02:50:24.982Z,13.12
2019-04-04T02:51:23.987Z,13.11
2019-04-04T02:52:23.950Z,13.03
2019-04-04T02:53:23.967Z,13.03
2019-04-04T02:54:25.518Z,13.08
2019-04-04T02:55:23.928Z,13.01
2019-04-04T02:56:23.928Z,13.05
2019-04-04T02:57:23.896Z,13.05
2019-04-04T02:58:23.884Z,12.98
2019-04-04T02:59:23.874Z,12.97
2019-04-04T03:00:26.722Z,12.97
2019-04-04T03:01:23.860Z,12.93
2019-04-04T03:02:23.846Z,12.82
2019-04-04T03:03:23.858Z,12.85
2019-04-04T03:04:23.829Z,12.95
2019-04-04T03:05:23.809Z,12.94
2019-04-04T03:06:24.478Z,13.00
2019-04-04T03:07:23.804Z,12.95
2019-04-04T03:08:23.776Z,12.91
2019-04-04T03:09:23.764Z,12.94
2019-04-04T03:10:23.762Z,12.91
2019-04-04T03:11:23.774Z,13.08
2019-04-04T03:12:26.258Z,12.95
2019-04-04T03:13:23.724Z,13.05
2019-04-04T03:14:23.718Z,13.11
2019-04-04T03:15:23.704Z,12.93
2019-04-04T03:16:23.717Z,12.85
2019-04-04T03:17:23.678Z,12.83
2019-04-04T03:18:23.663Z,12.70
2019-04-04T03:19:23.652Z,12.65
2019-04-04T03:20:23.655Z,12.68
2019-04-04T03:21:23.859Z,12.65
2019-04-04T03:22:24.603Z,12.76
2019-04-04T03:23:23.614Z,12.79
2019-04-04T03:24:23.602Z,12.78
2019-04-04T03:25:23.594Z,12.72
2019-04-04T03:26:23.584Z,12.78
2019-04-04T03:27:26.850Z,12.78
2019-04-04T03:28:23.577Z,12.83
2019-04-04T03:29:23.541Z,12.83
2019-04-04T03:30:23.571Z,12.87
2019-04-04T03:31:23.525Z,12.83
2019-04-04T03:32:23.523Z,12.82
2019-04-04T03:33:29.475Z,12.76
2019-04-04T03:34:24.510Z,12.72
2019-04-04T03:35:28.006Z,12.64
2019-04-04T03:36:24.496Z,12.65
2019-04-04T03:37:23.455Z,12.67
2019-04-04T03:38:23.454Z,12.72
2019-04-04T03:39:23.461Z,12.75
2019-04-04T03:40:25.656Z,12.79
2019-04-04T03:41:23.410Z,12.78
2019-04-04T03:42:23.401Z,12.79
2019-04-04T03:43:23.386Z,12.79
2019-04-04T03:44:23.410Z,12.82
2019-04-04T03:45:26.215Z,12.83
2019-04-04T03:46:23.376Z,12.85
2019-04-04T03:47:23.348Z,12.90
2019-04-04T03:48:23.332Z,12.85
2019-04-04T03:49:24.552Z,12.85
2019-04-04T03:50:23.341Z,12.80
2019-04-04T03:51:23.302Z,12.80
2019-04-04T03:52:23.294Z,12.80
2019-04-04T03:53:23.283Z,12.79
2019-04-04T03:54:23.531Z,12.68
2019-04-04T03:55:27.363Z,12.50
2019-04-04T03:56:24.271Z,12.50
2019-04-04T03:57:23.253Z,12.42
2019-04-04T03:58:27.017Z,12.47
2019-04-04T03:59:23.222Z,12.53
2019-04-04T04:00:23.202Z,12.40
2019-04-04T04:01:23.215Z,12.39
2019-04-04T04:02:23.187Z,12.37
2019-04-04T04:03:23.628Z,12.36
2019-04-04T04:04:27.111Z,12.35
2019-04-04T04:05:23.158Z,12.31
2019-04-04T04:06:23.169Z,12.40
2019-04-04T04:07:23.135Z,12.32
2019-04-04T04:08:23.119Z,12.39
2019-04-04T04:09:23.503Z,12.35
2019-04-04T04:10:23.099Z,12.32
2019-04-04T04:11:23.089Z,12.22
2019-04-04T04:12:23.099Z,12.22
2019-04-04T04:13:23.060Z,12.15
2019-04-04T04:14:23.048Z,12.25
2019-04-04T04:15:23.045Z,12.25
2019-04-04T04:16:23.034Z,12.20
2019-04-04T04:17:23.043Z,12.28
2019-04-04T04:18:23.012Z,12.22
2019-04-04T04:19:24.504Z,12.28
2019-04-04T04:20:22.990Z,12.29
2019-04-04T04:21:22.977Z,12.28
2019-04-04T04:22:22.986Z,12.36
2019-04-04T04:23:24.105Z,12.31
2019-04-04T04:24:22.958Z,12.31
2019-04-04T04:25:22.943Z,12.25
2019-04-04T04:26:22.920Z,12.06
2019-04-04T04:27:22.930Z,12.04
2019-04-04T04:28:22.909Z,11.91
2019-04-04T04:29:22.903Z,11.87
2019-04-04T04:30:22.885Z,11.80
2019-04-04T04:31:22.881Z,11.91
2019-04-04T04:32:22.913Z,11.95
2019-04-04T04:33:22.863Z,11.94
2019-04-04T04:34:22.835Z,12.04
2019-04-04T04:35:22.821Z,11.95
2019-04-04T04:36:22.820Z,11.78
2019-04-04T04:37:22.813Z,11.84
2019-04-04T04:38:25.235Z,11.77
2019-04-04T04:39:22.788Z,11.81
2019-04-04T04:40:22.771Z,11.75
2019-04-04T04:41:22.784Z,11.70
2019-04-04T04:42:26.331Z,11.65
2019-04-04T04:43:22.761Z,11.72
2019-04-04T04:44:22.750Z,11.72
2019-04-04T04:45:22.725Z,11.65
2019-04-04T04:46:22.728Z,11.72
2019-04-04T04:47:23.896Z,11.72
2019-04-04T04:48:25.820Z,11.78
2019-04-04T04:49:23.444Z,11.78
2019-04-04T04:50:22.669Z,11.77
2019-04-04T04:51:22.661Z,11.84
2019-04-04T04:52:22.645Z,11.84
2019-04-04T04:53:22.631Z,11.97
2019-04-04T04:54:23.480Z,12.03
2019-04-04T04:55:26.657Z,12.00
2019-04-04T04:56:22.603Z,12.02
2019-04-04T04:57:29.316Z,11.94
2019-04-04T04:58:23.604Z,11.81
2019-04-04T04:59:22.567Z,11.84
2019-04-04T05:00:22.587Z,11.88
2019-04-04T05:01:22.552Z,11.72
2019-04-04T05:02:22.997Z,11.66
2019-04-04T05:03:24.184Z,11.70
2019-04-04T05:04:22.532Z,11.57
2019-04-04T05:05:22.542Z,11.70
2019-04-04T05:06:22.492Z,11.63
2019-04-04T05:07:22.483Z,11.63
2019-04-04T05:08:22.481Z,11.60
2019-04-04T05:09:22.463Z,11.80
2019-04-04T05:10:22.490Z,11.77
2019-04-04T05:11:22.445Z,11.68
2019-04-04T05:12:22.426Z,11.69
2019-04-04T05:13:24.591Z,11.73
2019-04-04T05:14:22.410Z,11.84
2019-04-04T05:15:22.401Z,11.87
2019-04-04T05:16:22.402Z,11.90
2019-04-04T05:17:22.373Z,11.81
2019-04-04T05:18:22.389Z,11.83
2019-04-04T05:19:22.353Z,12.02
2019-04-04T05:20:23.161Z,12.03
2019-04-04T05:21:25.507Z,12.04
2019-04-04T05:22:22.336Z,12.07
2019-04-04T05:23:22.335Z,11.94
2019-04-04T05:24:22.299Z,11.90
2019-04-04T05:25:22.289Z,12.04
2019-04-04T05:26:22.276Z,12.02
2019-04-04T05:27:22.299Z,11.95
2019-04-04T05:28:22.266Z,11.95
2019-04-04T05:29:22.251Z,11.90
2019-04-04T05:30:22.246Z,11.91
2019-04-04T05:31:22.257Z,12.02
2019-04-04T05:32:22.218Z,11.99
2019-04-04T05:33:22.950Z,11.95
2019-04-04T05:34:22.196Z,12.07
2019-04-04T05:35:22.190Z,12.12
2019-04-04T05:36:22.201Z,12.25
2019-04-04T05:37:22.167Z,12.29
2019-04-04T05:38:22.210Z,12.21
2019-04-04T05:39:22.137Z,12.13
2019-04-04T05:40:23.630Z,12.06
2019-04-04T05:41:22.137Z,12.07
2019-04-04T05:42:22.115Z,12.06
2019-04-04T05:43:22.132Z,12.10
2019-04-04T05:44:22.102Z,11.95
2019-04-04T05:45:22.087Z,12.02
2019-04-04T05:46:22.069Z,11.95
2019-04-04T05:47:23.310Z,11.99
2019-04-04T05:48:22.072Z,12.09
2019-04-04T05:49:22.030Z,12.07
2019-04-04T05:50:22.030Z,12.06
2019-04-04T05:51:22.037Z,12.04
2019-04-04T05:52:22.009Z,11.88
2019-04-04T05:53:22.106Z,11.88
2019-04-04T05:54:22.020Z,11.80
2019-04-04T05:55:21.976Z,11.81
2019-04-04T05:56:24.223Z,11.87
2019-04-04T05:57:21.970Z,11.94
2019-04-04T05:58:22.697Z,11.95
2019-04-04T05:59:23.825Z,11.77
2019-04-04T06:00:21.923Z,11.65
2019-04-04T06:01:21.921Z,11.68
2019-04-04T06:02:21.899Z,11.83
2019-04-04T06:03:30.001Z,11.87
2019-04-04T06:04:21.879Z,11.83
2019-04-04T06:05:21.941Z,11.86
2019-04-04T06:06:21.865Z,11.94
2019-04-04T06:07:21.869Z,12.07
2019-04-04T06:08:21.836Z,11.95
2019-04-04T06:09:21.825Z,12.10
2019-04-04T06:10:21.811Z,11.97
2019-04-04T06:11:21.806Z,12.17
2019-04-04T06:12:22.966Z,12.10
2019-04-04T06:13:22.282Z,12.20
2019-04-04T06:14:21.761Z,12.22
2019-04-04T06:15:21.751Z,12.27
2019-04-04T06:16:21.746Z,12.31
2019-04-04T06:17:21.753Z,12.35
2019-04-04T06:18:21.749Z,12.29
2019-04-04T06:19:21.710Z,12.29
2019-04-04T06:20:21.696Z,12.49
2019-04-04T06:21:21.721Z,12.42
2019-04-04T06:22:21.787Z,12.57
2019-04-04T06:23:23.086Z,12.55
2019-04-04T06:24:21.686Z,12.58
2019-04-04T06:25:21.658Z,12.62
2019-04-04T06:26:21.656Z,12.64
2019-04-04T06:27:21.650Z,12.68
2019-04-04T06:28:21.609Z,12.62
2019-04-04T06:29:21.599Z,12.68
2019-04-04T06:30:21.602Z,12.72
2019-04-04T06:31:21.579Z,12.68
2019-04-04T06:32:21.569Z,12.68
2019-04-04T06:33:21.574Z,12.62
2019-04-04T06:34:23.949Z,12.62
2019-04-04T06:35:21.540Z,12.60
2019-04-04T06:36:21.525Z,12.57
2019-04-04T06:37:21.515Z,12.61
2019-04-04T06:38:23.392Z,12.60
2019-04-04T06:39:24.765Z,12.55
2019-04-04T06:40:21.474Z,12.54
2019-04-04T06:41:21.466Z,12.57
2019-04-04T06:42:21.468Z,12.53
2019-04-04T06:43:21.487Z,12.49
2019-04-04T06:44:21.435Z,12.60
2019-04-04T06:45:21.425Z,12.49
2019-04-04T06:46:22.781Z,12.55
2019-04-04T06:47:23.125Z,12.60
2019-04-04T06:48:21.400Z,12.60
2019-04-04T06:49:21.407Z,12.73
2019-04-04T06:50:21.378Z,12.68
2019-04-04T06:51:21.353Z,12.86
2019-04-04T06:52:23.408Z,12.83
2019-04-04T06:53:22.246Z,12.95
2019-04-04T06:54:25.044Z,13.01
2019-04-04T06:55:21.316Z,13.05
2019-04-04T06:56:21.306Z,13.13
2019-04-04T06:57:21.293Z,13.13
2019-04-04T06:58:21.280Z,13.09
2019-04-04T06:59:21.301Z,13.13
2019-04-04T07:00:21.259Z,13.05
2019-04-04T07:01:22.069Z,13.01
2019-04-04T07:02:22.007Z,12.98
2019-04-04T07:03:21.233Z,13.09
2019-04-04T07:04:21.215Z,13.09
2019-04-04T07:05:21.231Z,13.19
2019-04-04T07:06:21.198Z,13.30
2019-04-04T07:07:21.188Z,13.37
2019-04-04T07:08:21.198Z,13.50
2019-04-04T07:09:21.165Z,13.53
2019-04-04T07:10:21.962Z,13.60
2019-04-04T07:11:21.835Z,13.70
2019-04-04T07:12:26.795Z,13.75
2019-04-04T07:13:26.905Z,13.70
2019-04-04T07:14:22.109Z,13.72
2019-04-04T07:15:21.099Z,13.79
2019-04-04T07:16:21.123Z,13.79
2019-04-04T07:17:21.113Z,13.72
2019-04-04T07:18:21.059Z,13.83
2019-04-04T07:19:21.049Z,13.97
2019-04-04T07:20:21.043Z,14.10
2019-04-04T07:21:21.033Z,14.08
2019-04-04T07:22:24.537Z,14.03
2019-04-04T07:23:21.037Z,14.12
2019-04-04T07:24:21.009Z,14.12
2019-04-04T07:25:20.987Z,14.22
2019-04-04T07:26:20.982Z,14.22
2019-04-04T07:27:29.745Z,14.22
2019-04-04T07:28:20.950Z,14.33
2019-04-04T07:29:20.961Z,14.30
2019-04-04T07:30:20.933Z,14.44
2019-04-04T07:31:20.918Z,14.44
2019-04-04T07:32:20.921Z,14.60
2019-04-04T07:33:21.504Z,14.84
2019-04-04T07:34:20.916Z,14.77
2019-04-04T07:35:21.185Z,14.97
2019-04-04T07:36:20.959Z,14.99
2019-04-04T07:37:22.219Z,15.11
2019-04-04T07:38:20.847Z,15.21
2019-04-04T07:39:20.848Z,15.17
2019-04-04T07:40:20.860Z,15.25
2019-04-04T07:41:20.810Z,15.28
2019-04-04T07:42:20.798Z,15.27
2019-04-04T07:43:20.788Z,15.25
2019-04-04T07:44:23.004Z,15.04
2019-04-04T07:45:20.773Z,15.09
2019-04-04T07:46:20.785Z,15.04
2019-04-04T07:47:20.752Z,15.17
2019-04-04T07:48:20.740Z,15.11
2019-04-04T07:49:21.120Z,15.24
2019-04-04T07:50:20.742Z,15.33
2019-04-04T07:51:20.738Z,15.39
2019-04-04T07:52:20.698Z,15.57
2019-04-04T07:53:20.687Z,15.57
2019-04-04T07:54:20.677Z,15.70
2019-04-04T07:55:20.689Z,15.64
2019-04-04T07:56:20.695Z,15.80
2019-04-04T07:57:20.646Z,15.90
2019-04-04T07:58:20.634Z,15.94
2019-04-04T07:59:20.625Z,15.94
2019-04-04T08:00:20.611Z,16.17
2019-04-04T08:01:20.621Z,16.28
2019-04-04T08:02:20.588Z,16.24
2019-04-04T08:03:20.583Z,16.47
2019-04-04T08:04:20.571Z,16.43
2019-04-04T08:05:20.557Z,16.66
2019-04-04T08:06:20.569Z,16.75
2019-04-04T08:07:20.571Z,16.76
2019-04-04T08:08:20.524Z,16.84
2019-04-04T08:09:20.512Z,16.86
2019-04-04T08:10:21.203Z,16.90
2019-04-04T08:11:20.520Z,16.90
2019-04-04T08:12:20.481Z,17.02
2019-04-04T08:13:20.489Z,17.19
2019-04-04T08:14:20.469Z,17.16
2019-04-04T08:15:20.449Z,17.15
2019-04-04T08:16:20.438Z,17.27
2019-04-04T08:17:20.447Z,17.24
2019-04-04T08:18:20.444Z,17.24
2019-04-04T08:19:20.405Z,17.12
2019-04-04T08:20:20.393Z,17.09
2019-04-04T08:21:20.387Z,17.15
2019-04-04T08:22:20.501Z,17.15
2019-04-04T08:23:20.366Z,17.23
2019-04-04T08:24:20.379Z,17.30
2019-04-04T08:25:20.405Z,17.46
2019-04-04T08:26:20.330Z,17.60
2019-04-04T08:27:20.339Z,17.39
2019-04-04T08:28:20.310Z,17.48
2019-04-04T08:29:20.298Z,17.57
2019-04-04T08:30:20.286Z,17.70
2019-04-04T08:31:20.277Z,18.00
2019-04-04T08:32:20.286Z,18.00
2019-04-04T08:33:20.259Z,18.13
2019-04-04T08:34:20.241Z,18.40
2019-04-04T08:35:20.230Z,18.71
2019-04-04T08:36:20.220Z,19.00
2019-04-04T08:37:20.229Z,19.30
2019-04-04T08:38:20.199Z,19.59
2019-04-04T08:39:20.187Z,19.52
2019-04-04T08:40:20.184Z,19.89
2019-04-04T08:41:20.185Z,20.11
2019-04-04T08:42:20.176Z,20.29
2019-04-04T08:43:20.145Z,20.50
2019-04-04T08:44:20.131Z,20.92
2019-04-04T08:45:20.124Z,21.72
2019-04-04T08:46:20.251Z,22.78
2019-04-04T08:47:20.126Z,24.03
2019-04-04T08:48:20.088Z,25.47
2019-04-04T08:49:20.075Z,27.15
2019-04-04T08:50:20.072Z,28.20
2019-04-04T08:51:20.091Z,29.27
2019-04-04T08:52:20.879Z,30.43
2019-04-04T08:53:20.045Z,31.49
2019-04-04T08:54:20.023Z,32.14
2019-04-04T08:55:20.021Z,31.87
2019-04-04T08:56:20.059Z,32.14
2019-04-04T08:57:19.997Z,32.56
2019-04-04T08:58:20.024Z,33.20
2019-04-04T08:59:19.969Z,33.81
2019-04-04T09:00:19.961Z,33.95
2019-04-04T09:01:19.961Z,33.69
2019-04-04T09:02:19.943Z,33.99
2019-04-04T09:03:19.931Z,34.18
2019-04-04T09:04:19.941Z,34.89
2019-04-04T09:05:19.913Z,35.52
2019-04-04T09:06:19.906Z,36.08
2019-04-04T09:07:19.890Z,36.51
2019-04-04T09:08:19.886Z,36.96
2019-04-04T09:09:19.898Z,37.18
2019-04-04T09:10:19.863Z,36.05
2019-04-04T09:11:19.856Z,35.88
2019-04-04T09:12:19.842Z,35.44
2019-04-04T09:13:19.841Z,35.76
2019-04-04T09:14:19.847Z,36.24
2019-04-04T09:15:19.812Z,36.39
2019-04-04T09:16:19.804Z,36.57
2019-04-04T09:17:19.795Z,36.72
2019-04-04T09:18:19.786Z,36.88
2019-04-04T09:19:19.793Z,36.79
2019-04-04T09:20:19.794Z,37.18
2019-04-04T09:21:19.757Z,37.45
2019-04-04T09:22:19.747Z,37.86
2019-04-04T09:23:19.740Z,38.27
2019-04-04T09:24:19.749Z,38.46
2019-04-04T09:25:19.738Z,38.83
2019-04-04T09:26:19.712Z,38.82
2019-04-04T09:27:19.705Z,39.03
2019-04-04T09:28:19.693Z,39.18
2019-04-04T09:29:19.685Z,39.15
2019-04-04T09:30:19.695Z,38.71
2019-04-04T09:31:19.668Z,38.86
2019-04-04T09:32:19.655Z,38.99
2019-04-04T09:33:21.032Z,39.18
2019-04-04T09:34:19.644Z,39.37
2019-04-04T09:35:19.651Z,39.38
2019-04-04T09:36:19.624Z,37.63
2019-04-04T09:37:19.614Z,37.67
2019-04-04T09:38:19.605Z,38.12
2019-04-04T09:39:19.596Z,38.54
2019-04-04T09:40:19.613Z,39.06
2019-04-04T09:41:19.598Z,39.21
2019-04-04T09:42:19.572Z,39.36
2019-04-04T09:43:19.558Z,39.56
2019-04-04T09:44:19.555Z,39.58
2019-04-04T09:45:19.550Z,39.55
2019-04-04T09:46:19.572Z,39.26
2019-04-04T09:47:19.530Z,38.83
2019-04-04T09:48:19.517Z,38.38
2019-04-04T09:49:19.517Z,38.06
2019-04-04T09:50:19.509Z,38.08
2019-04-04T09:51:19.490Z,38.48
2019-04-04T09:52:19.502Z,38.74
2019-04-04T09:53:19.476Z,38.83
2019-04-04T09:54:19.659Z,39.06
2019-04-04T09:55:19.460Z,39.55
2019-04-04T09:56:19.445Z,39.65
2019-04-04T09:57:19.471Z,39.63
2019-04-04T09:58:19.430Z,39.68
2019-04-04T09:59:19.423Z,39.92
2019-04-04T10:00:19.415Z,40.06
2019-04-04T10:01:19.401Z,39.75
2019-04-04T10:02:19.395Z,39.74
2019-04-04T10:03:19.406Z,38.97
2019-04-04T10:04:19.376Z,38.42
2019-04-04T10:05:19.369Z,37.94
2019-04-04T10:06:19.630Z,37.53
2019-04-04T10:07:19.353Z,37.25
2019-04-04T10:08:19.371Z,36.89
2019-04-04T10:09:19.334Z,36.31
2019-04-04T10:10:19.324Z,35.74
2019-04-04T10:11:19.314Z,35.82
2019-04-04T10:12:19.306Z,36.04
2019-04-04T10:13:19.321Z,36.35
2019-04-04T10:14:19.313Z,36.68
2019-04-04T10:15:19.279Z,36.95
2019-04-04T10:16:19.272Z,36.52
2019-04-04T10:17:19.290Z,36.28
2019-04-04T10:18:19.278Z,35.51
2019-04-04T10:19:19.247Z,34.70
2019-04-04T10:20:19.236Z,33.79
2019-04-04T10:21:19.225Z,32.89
2019-04-04T10:22:19.222Z,31.52
2019-04-04T10:23:19.234Z,30.47
2019-04-04T10:24:19.204Z,29.87
2019-04-04T10:25:19.205Z,29.27
2019-04-04T10:26:19.191Z,28.76
2019-04-04T10:27:19.172Z,28.75
2019-04-04T10:28:19.204Z,28.49
2019-04-04T10:29:19.158Z,28.44
2019-04-04T10:30:19.149Z,28.22
2019-04-04T10:31:19.140Z,27.95
2019-04-04T10:32:19.127Z,27.63
2019-04-04T10:33:19.117Z,27.44
2019-04-04T10:34:19.127Z,27.48
2019-04-04T10:35:19.099Z,27.37
2019-04-04T10:36:19.096Z,27.45
2019-04-04T10:37:19.078Z,27.65
2019-04-04T10:38:19.072Z,27.75
2019-04-04T10:39:28.887Z,27.78
2019-04-04T10:40:20.054Z,27.96
2019-04-04T10:41:19.038Z,27.63
2019-04-04T10:42:19.030Z,27.68
2019-04-04T10:43:19.023Z,27.60
2019-04-04T10:44:19.007Z,27.47
2019-04-04T10:45:19.021Z,27.02
2019-04-04T10:46:18.988Z,26.70
2019-04-04T10:47:18.997Z,26.34
2019-04-04T10:48:18.967Z,26.07
2019-04-04T10:49:18.956Z,25.98
2019-04-04T10:50:18.986Z,25.91
2019-04-04T10:51:18.938Z,25.78
2019-04-04T10:52:18.927Z,25.98
2019-04-04T10:53:18.914Z,26.19
2019-04-04T10:54:18.904Z,26.25
2019-04-04T10:55:18.896Z,26.41
2019-04-04T10:56:18.904Z,26.15
2019-04-04T10:57:18.874Z,26.03
2019-04-04T10:58:18.864Z,25.78
2019-04-04T10:59:18.852Z,25.63
2019-04-04T11:00:18.844Z,25.65
2019-04-04T11:01:18.854Z,25.69
2019-04-04T11:02:18.829Z,25.72
2019-04-04T11:03:18.812Z,25.78
2019-04-04T11:04:18.802Z,25.55
2019-04-04T11:05:18.796Z,25.41
2019-04-04T11:06:18.818Z,25.16
2019-04-04T11:07:18.766Z,25.08
2019-04-04T11:08:18.756Z,25.07
2019-04-04T11:09:18.748Z,25.14
2019-04-04T11:10:18.737Z,25.23
2019-04-04T11:11:18.745Z,25.26
2019-04-04T11:12:18.715Z,25.04
2019-04-04T11:13:18.703Z,24.92
2019-04-04T11:14:18.692Z,24.93
2019-04-04T11:15:18.681Z,24.81
2019-04-04T11:16:29.507Z,24.74
2019-04-04T11:17:19.665Z,24.61
2019-04-04T11:18:18.654Z,24.65
2019-04-04T11:19:30.628Z,24.33
2019-04-04T11:20:19.629Z,24.23
2019-04-04T11:21:18.639Z,24.10
2019-04-04T11:22:18.635Z,24.17
2019-04-04T11:23:18.596Z,24.26
2019-04-04T11:24:18.588Z,24.23
2019-04-04T11:25:18.578Z,24.16
2019-04-04T11:26:18.589Z,24.18
2019-04-04T11:27:18.558Z,24.17
2019-04-04T11:28:18.542Z,23.99
2019-04-04T11:29:18.536Z,23.83
2019-04-04T11:30:18.522Z,23.71
2019-04-04T11:31:18.532Z,23.77
2019-04-04T11:32:18.500Z,23.87
2019-04-04T11:33:18.497Z,23.93
2019-04-04T11:34:18.478Z,23.77
2019-04-04T11:35:18.493Z,23.71
2019-04-04T11:36:18.480Z,23.83
2019-04-04T11:37:18.446Z,23.95
2019-04-04T11:38:18.433Z,24.13
2019-04-04T11:39:18.428Z,24.18
2019-04-04T11:40:18.412Z,24.29
2019-04-04T11:41:18.437Z,24.10
2019-04-04T11:42:18.392Z,24.08
2019-04-04T11:43:19.353Z,23.99
2019-04-04T11:44:18.376Z,24.26
2019-04-04T11:45:18.363Z,24.36
2019-04-04T11:46:18.383Z,24.13
2019-04-04T11:47:18.338Z,23.95
2019-04-04T11:48:18.333Z,23.92
2019-04-04T11:49:18.317Z,23.92
2019-04-04T11:50:18.306Z,23.84
2019-04-04T11:51:18.297Z,23.86
2019-04-04T11:52:18.306Z,23.76
2019-04-04T11:53:18.274Z,23.61
2019-04-04T11:54:18.263Z,23.39
2019-04-04T11:55:18.253Z,23.32
2019-04-04T11:56:18.241Z,23.28
2019-04-04T11:57:18.267Z,23.28
2019-04-04T11:58:18.219Z,23.28
2019-04-04T11:59:18.211Z,23.08
2019-04-04T12:00:18.213Z,22.91
2019-04-04T12:01:18.205Z,22.76
2019-04-04T12:02:18.227Z,22.70
2019-04-04T12:03:18.164Z,22.81
2019-04-04T12:04:18.157Z,22.75
2019-04-04T12:05:18.151Z,22.93
2019-04-04T12:06:18.136Z,23.06
2019-04-04T12:07:18.131Z,22.90
2019-04-04T12:08:18.134Z,22.80
2019-04-04T12:09:18.101Z,22.57
2019-04-04T12:10:18.091Z,22.48
2019-04-04T12:11:18.080Z,22.54
2019-04-04T12:12:18.073Z,22.17
2019-04-04T12:13:18.081Z,22.13
2019-04-04T12:14:18.051Z,22.10
2019-04-04T12:15:18.038Z,22.18
2019-04-04T12:16:18.024Z,22.11
2019-04-04T12:17:18.022Z,22.17
2019-04-04T12:18:18.024Z,22.06
2019-04-04T12:19:17.995Z,21.82
2019-04-04T12:20:18.003Z,22.08
2019-04-04T12:21:17.976Z,22.11
2019-04-04T12:22:17.963Z,22.00
2019-04-04T12:23:17.948Z,21.93
2019-04-04T12:24:17.959Z,21.98
2019-04-04T12:25:17.960Z,22.22
2019-04-04T12:26:17.918Z,22.22
2019-04-04T12:27:17.913Z,22.22
2019-04-04T12:28:17.897Z,22.20
2019-04-04T12:29:17.906Z,22.13
2019-04-04T12:30:20.519Z,22.18
2019-04-04T12:31:17.865Z,22.35
2019-04-04T12:32:17.860Z,22.55
2019-04-04T12:33:17.847Z,22.54
2019-04-04T12:34:17.865Z,22.63
2019-04-04T12:35:17.820Z,22.59
2019-04-04T12:36:24.508Z,22.54
2019-04-04T12:37:18.799Z,22.65
2019-04-04T12:38:17.790Z,22.73
2019-04-04T12:39:17.779Z,22.70
2019-04-04T12:40:20.677Z,22.83
2019-04-04T12:41:17.756Z,22.73
2019-04-04T12:42:17.744Z,22.83
2019-04-04T12:43:17.746Z,22.87
2019-04-04T12:44:17.722Z,22.90
2019-04-04T12:45:17.727Z,23.02
2019-04-04T12:46:17.729Z,23.03
2019-04-04T12:47:17.691Z,22.98
2019-04-04T12:48:17.700Z,23.08
2019-04-04T12:49:17.668Z,23.08
2019-04-04T12:50:17.657Z,23.08
2019-04-04T12:51:17.669Z,22.98
2019-04-04T12:52:17.635Z,23.09